createdAt,value
2022-11-03T00:02:09.785Z,3.89
2022-11-03T00:05:30.099Z,3.87
2022-11-03T00:08:32.321Z,3.86
2022-11-03T00:11:34.394Z,3.83
2022-11-03T00:14:35.742Z,3.81
2022-11-03T00:17:37.128Z,3.75
2022-11-03T00:20:38.507Z,3.79
2022-11-03T00:23:40.606Z,3.74
2022-11-03T00:26:41.988Z,3.74
2022-11-03T00:29:43.307Z,3.75
2022-11-03T00:32:44.677Z,3.76
2022-11-03T00:35:46.044Z,3.69
2022-11-03T00:38:47.425Z,3.64
2022-11-03T00:41:48.777Z,3.63
2022-11-03T00:44:50.171Z,3.59
2022-11-03T00:48:10.972Z,3.61
2022-11-03T00:51:13.215Z,3.58
2022-11-03T00:54:14.551Z,3.55
2022-11-03T00:57:15.888Z,3.53
2022-11-03T01:00:17.286Z,3.50
2022-11-03T01:03:18.629Z,3.48
2022-11-03T01:06:38.895Z,3.42
2022-11-03T01:09:41.064Z,3.40
2022-11-03T01:12:42.379Z,3.40
2022-11-03T01:15:43.708Z,3.39
2022-11-03T01:18:45.057Z,3.40
2022-11-03T01:21:46.393Z,3.43
2022-11-03T01:24:47.721Z,3.41
2022-11-03T01:27:49.055Z,3.44
2022-11-03T01:30:50.397Z,3.37
2022-11-03T01:33:53.021Z,3.34
2022-11-03T01:36:54.409Z,3.41
2022-11-03T01:39:55.859Z,3.39
2022-11-03T01:43:13.809Z,3.45
2022-11-03T01:46:24.667Z,3.35
2022-11-03T01:49:33.794Z,3.30
2022-11-03T01:52:42.901Z,3.25
2022-11-03T01:55:44.231Z,3.24
2022-11-03T01:58:46.799Z,3.24
2022-11-03T02:01:48.179Z,3.26
2022-11-03T02:04:49.554Z,3.28
2022-11-03T02:07:56.241Z,3.33
2022-11-03T02:10:58.315Z,3.28
2022-11-03T02:13:59.658Z,3.23
2022-11-03T02:17:02.249Z,3.20
2022-11-03T02:20:07.807Z,3.16
2022-11-03T02:23:26.437Z,3.12
2022-11-03T02:26:27.827Z,3.14
2022-11-03T02:29:29.143Z,3.15
2022-11-03T02:32:40.178Z,3.19
2022-11-03T02:35:56.937Z,3.15
2022-11-03T02:38:59.249Z,3.14
2022-11-03T02:42:00.591Z,3.18
2022-11-03T02:45:02.836Z,3.22
2022-11-03T02:48:04.419Z,3.21
2022-11-03T02:51:05.780Z,3.23
2022-11-03T02:54:08.791Z,3.18
2022-11-03T02:57:12.990Z,3.19
2022-11-03T03:00:14.460Z,3.25
2022-11-03T03:03:22.717Z,3.30
2022-11-03T03:06:29.058Z,3.31
2022-11-03T03:09:41.801Z,3.25
2022-11-03T03:12:43.630Z,3.21
2022-11-03T03:15:50.390Z,3.23
2022-11-03T03:19:03.418Z,3.23
2022-11-03T03:22:08.591Z,3.24
2022-11-03T03:25:17.877Z,3.20
2022-11-03T03:28:26.604Z,3.30
2022-11-03T03:31:27.948Z,3.35
2022-11-03T03:34:35.341Z,3.37
2022-11-03T03:37:37.489Z,3.28
2022-11-03T03:40:39.133Z,3.24
2022-11-03T03:43:40.448Z,3.31
2022-11-03T03:46:42.701Z,3.28
2022-11-03T03:49:44.070Z,3.28
2022-11-03T03:52:45.403Z,3.29
2022-11-03T03:55:47.463Z,3.35
2022-11-03T03:58:48.865Z,3.35
2022-11-03T04:01:50.283Z,3.31
2022-11-03T04:04:51.731Z,3.26
2022-11-03T04:07:53.107Z,3.25
2022-11-03T04:11:13.342Z,3.28
2022-11-03T04:14:33.453Z,3.31
2022-11-03T04:18:00.748Z,3.34
2022-11-03T04:21:20.878Z,3.29
2022-11-03T04:24:22.236Z,3.29
2022-11-03T04:27:27.631Z,3.27
2022-11-03T04:30:29.018Z,3.24
2022-11-03T04:33:30.362Z,3.26
2022-11-03T04:36:31.682Z,3.26
2022-11-03T04:39:33.063Z,3.24
2022-11-03T04:42:34.514Z,3.22
2022-11-03T04:45:36.026Z,3.23
2022-11-03T04:48:37.523Z,3.23
2022-11-03T04:51:38.871Z,3.23
2022-11-03T04:54:40.246Z,3.22
2022-11-03T04:57:41.603Z,3.20
2022-11-03T05:00:43.009Z,3.19
2022-11-03T05:03:44.788Z,3.20
2022-11-03T05:06:50.783Z,3.19
2022-11-03T05:09:52.681Z,3.20
2022-11-03T05:12:54.104Z,3.18
2022-11-03T05:15:59.424Z,3.16
2022-11-03T05:19:00.798Z,3.14
2022-11-03T05:22:02.730Z,3.13
2022-11-03T05:25:10.635Z,3.09
2022-11-03T05:28:22.158Z,3.07
2022-11-03T05:31:27.772Z,3.03
2022-11-03T05:34:35.987Z,3.05
2022-11-03T05:37:37.311Z,3.05
2022-11-03T05:40:38.676Z,3.04
2022-11-03T05:43:40.061Z,3.05
2022-11-03T05:46:41.400Z,3.02
2022-11-03T05:49:42.769Z,3.00
2022-11-03T05:52:44.438Z,3.03
2022-11-03T05:55:45.828Z,3.04
2022-11-03T05:58:47.143Z,3.02
2022-11-03T06:01:48.586Z,3.01
2022-11-03T06:04:50.091Z,3.03
2022-11-03T06:07:52.910Z,3.05
2022-11-03T06:10:55.256Z,3.09
2022-11-03T06:13:57.079Z,3.15
2022-11-03T06:16:59.896Z,3.17
2022-11-03T06:20:01.318Z,3.16
2022-11-03T06:23:02.705Z,3.16
2022-11-03T06:26:04.136Z,3.17
2022-11-03T06:29:05.466Z,3.21
2022-11-03T06:32:08.970Z,3.25
2022-11-03T06:35:10.336Z,3.29
2022-11-03T06:38:13.066Z,3.35
2022-11-03T06:41:19.480Z,3.40
2022-11-03T06:44:24.997Z,3.47
2022-11-03T06:47:26.887Z,3.53
2022-11-03T06:50:29.934Z,3.59
2022-11-03T06:53:31.928Z,3.62
2022-11-03T06:56:35.253Z,3.68
2022-11-03T06:59:36.606Z,3.72
2022-11-03T07:02:38.140Z,3.80
2022-11-03T07:05:39.672Z,3.87
2022-11-03T07:09:07.401Z,3.94
2022-11-03T07:12:09.013Z,4.00
2022-11-03T07:15:16.979Z,4.08
2022-11-03T07:18:22.701Z,4.14
2022-11-03T07:21:24.053Z,4.25
2022-11-03T07:24:32.176Z,4.33
2022-11-03T07:27:35.333Z,4.40
2022-11-03T07:30:36.682Z,4.55
2022-11-03T07:33:38.049Z,4.55
2022-11-03T07:36:39.423Z,4.68
2022-11-03T07:39:40.831Z,4.80
2022-11-03T07:42:42.160Z,4.78
2022-11-03T07:45:50.342Z,4.86
2022-11-03T07:49:02.751Z,4.99
2022-11-03T07:52:05.131Z,5.13
2022-11-03T07:55:09.242Z,5.21
2022-11-03T07:58:20.844Z,5.34
2022-11-03T08:01:26.463Z,5.57
2022-11-03T08:04:28.595Z,5.77
2022-11-03T08:07:30.060Z,6.00
2022-11-03T08:10:31.570Z,6.19
2022-11-03T08:13:32.997Z,6.22
2022-11-03T08:16:34.386Z,6.51
2022-11-03T08:19:35.755Z,6.47
2022-11-03T08:22:37.099Z,6.62
2022-11-03T08:25:38.427Z,6.72
2022-11-03T08:28:39.761Z,6.91
2022-11-03T08:31:41.329Z,6.85
2022-11-03T08:34:42.664Z,6.76
2022-11-03T08:37:44.007Z,7.03
2022-11-03T08:40:45.391Z,7.35
2022-11-03T08:43:46.722Z,7.63
2022-11-03T08:46:48.085Z,7.71
2022-11-03T08:49:49.414Z,7.47
2022-11-03T08:52:50.718Z,7.52
2022-11-03T08:55:52.536Z,7.32
2022-11-03T08:58:53.923Z,7.44
2022-11-03T09:01:55.453Z,7.63
2022-11-03T09:04:56.903Z,7.66
2022-11-03T09:11:19.826Z,7.64
2022-11-03T09:14:21.168Z,7.94
2022-11-03T09:17:22.519Z,8.48
2022-11-03T09:20:23.855Z,9.42
2022-11-03T09:23:25.203Z,9.97
2022-11-03T09:26:26.823Z,9.93
2022-11-03T09:29:36.310Z,9.53
2022-11-03T09:32:47.096Z,9.28
2022-11-03T09:35:48.436Z,9.10
2022-11-03T09:38:49.866Z,9.39
2022-11-03T09:41:58.314Z,9.95
2022-11-03T09:45:00.630Z,10.40
2022-11-03T09:48:02.495Z,10.96
2022-11-03T09:51:04.011Z,10.93
2022-11-03T09:54:05.450Z,10.83
2022-11-03T09:57:09.861Z,11.02
2022-11-03T10:00:18.635Z,10.80
2022-11-03T10:03:20.853Z,10.88
2022-11-03T10:06:22.259Z,10.94
2022-11-03T10:09:23.785Z,11.13
2022-11-03T10:12:25.298Z,11.45
2022-11-03T10:15:26.685Z,11.07
2022-11-03T10:18:28.028Z,10.99
2022-11-03T10:21:30.008Z,10.98
2022-11-03T10:24:31.533Z,10.73
2022-11-03T10:27:32.877Z,10.89
2022-11-03T10:30:45.318Z,11.11
2022-11-03T10:33:55.677Z,10.82
2022-11-03T10:37:09.968Z,11.37
2022-11-03T10:40:46.808Z,11.44
2022-11-03T10:43:43.198Z,11.52
2022-11-03T10:46:55.858Z,11.60
2022-11-03T10:49:57.619Z,11.49
2022-11-03T10:52:58.970Z,11.53
2022-11-03T10:56:00.348Z,11.56
2022-11-03T10:59:01.739Z,11.60
2022-11-03T11:02:03.193Z,11.61
2022-11-03T11:05:09.935Z,11.85
2022-11-03T11:08:11.574Z,11.81
2022-11-03T11:11:15.051Z,11.90
2022-11-03T11:14:42.866Z,12.09
2022-11-03T11:17:45.462Z,12.18
2022-11-03T11:20:46.897Z,12.21
2022-11-03T11:23:48.480Z,12.34
2022-11-03T11:26:50.822Z,12.31
2022-11-03T11:29:52.275Z,12.39
2022-11-03T11:32:59.061Z,12.41
2022-11-03T11:36:00.360Z,12.33
2022-11-03T11:39:02.043Z,12.30
2022-11-03T11:42:07.280Z,12.33
2022-11-03T11:45:08.735Z,12.36
2022-11-03T11:48:18.943Z,12.31
2022-11-03T11:51:20.742Z,12.32
2022-11-03T11:54:22.090Z,12.32
2022-11-03T11:57:23.440Z,12.34
2022-11-03T12:00:25.851Z,12.31
2022-11-03T12:03:31.682Z,12.31
2022-11-03T12:06:34.139Z,12.32
2022-11-03T12:09:35.569Z,12.38
2022-11-03T12:12:36.964Z,12.58
2022-11-03T12:15:48.050Z,12.65
2022-11-03T12:18:50.622Z,12.53
2022-11-03T12:21:52.220Z,12.61
2022-11-03T12:24:54.368Z,12.63
2022-11-03T12:27:55.692Z,12.66
2022-11-03T12:30:57.091Z,12.72
2022-11-03T12:33:58.955Z,12.75
2022-11-03T12:37:00.271Z,12.82
2022-11-03T12:40:01.705Z,12.81
2022-11-03T12:43:03.054Z,12.81
2022-11-03T12:46:04.430Z,12.91
2022-11-03T12:49:05.808Z,12.85
2022-11-03T12:52:08.666Z,12.89
2022-11-03T12:55:10.167Z,12.77
2022-11-03T12:58:11.490Z,12.77
2022-11-03T13:01:13.389Z,12.81
2022-11-03T13:04:14.861Z,12.73
2022-11-03T13:07:19.201Z,12.68
2022-11-03T13:10:25.567Z,12.66
2022-11-03T13:13:27.135Z,12.63
2022-11-03T13:16:28.454Z,12.65
2022-11-03T13:19:29.831Z,12.73
2022-11-03T13:22:31.146Z,12.74
2022-11-03T13:25:32.520Z,12.74
2022-11-03T13:28:33.925Z,12.76
2022-11-03T13:31:35.762Z,12.73
2022-11-03T13:34:37.171Z,12.72
2022-11-03T13:37:38.534Z,12.76
2022-11-03T13:40:56.404Z,12.75
2022-11-03T13:43:58.696Z,12.63
2022-11-03T13:47:00.124Z,12.65
2022-11-03T13:50:14.343Z,12.66
2022-11-03T14:00:01.991Z,12.52
2022-11-03T14:06:27.489Z,12.40
2022-11-03T14:09:28.977Z,12.35
2022-11-03T14:12:34.657Z,12.28
2022-11-03T14:15:36.060Z,12.24
2022-11-03T14:18:37.397Z,12.23
2022-11-03T14:21:42.580Z,12.22
2022-11-03T14:24:44.428Z,12.19
2022-11-03T14:27:46.631Z,12.18
2022-11-03T14:30:48.000Z,12.15
2022-11-03T14:33:49.369Z,12.16
2022-11-03T14:36:50.733Z,12.13
2022-11-03T14:39:52.173Z,12.12
2022-11-03T14:42:53.516Z,12.11
2022-11-03T14:45:54.892Z,12.08
2022-11-03T14:48:56.280Z,12.08
2022-11-03T14:51:57.752Z,12.04
2022-11-03T14:54:59.148Z,12.00
2022-11-03T14:58:00.490Z,11.99
2022-11-03T15:01:01.956Z,11.93
2022-11-03T15:04:03.340Z,11.87
2022-11-03T15:07:04.740Z,11.85
2022-11-03T15:10:06.152Z,11.81
2022-11-03T15:13:07.741Z,11.70
2022-11-03T15:16:09.251Z,11.73
2022-11-03T15:19:10.627Z,11.67
2022-11-03T15:22:12.066Z,11.65
2022-11-03T15:25:13.520Z,11.57
2022-11-03T15:28:14.866Z,11.47
2022-11-03T15:31:16.246Z,11.44
2022-11-03T15:34:18.117Z,11.39
2022-11-03T15:37:19.456Z,11.31
2022-11-03T15:40:20.839Z,11.27
2022-11-03T15:43:22.192Z,11.21
2022-11-03T15:46:23.527Z,11.19
2022-11-03T15:49:24.919Z,11.15
2022-11-03T15:52:26.240Z,11.11
2022-11-03T15:55:27.652Z,11.11
2022-11-03T15:58:32.966Z,11.04
2022-11-03T16:01:35.487Z,10.98
2022-11-03T16:04:36.950Z,10.90
2022-11-03T16:07:38.267Z,10.85
2022-11-03T16:10:44.148Z,10.80
2022-11-03T16:13:49.399Z,10.75
2022-11-03T16:16:50.821Z,10.71
2022-11-03T16:19:52.154Z,10.63
2022-11-03T16:22:53.519Z,10.64
2022-11-03T16:25:54.868Z,10.65
2022-11-03T16:28:56.550Z,10.72
2022-11-03T16:31:57.924Z,10.76
2022-11-03T16:34:59.409Z,10.65
2022-11-03T16:38:00.871Z,10.53
2022-11-03T16:41:02.223Z,10.50
2022-11-03T16:44:03.645Z,10.46
2022-11-03T16:47:05.378Z,10.40
2022-11-03T16:50:06.987Z,10.36
2022-11-03T16:53:08.752Z,10.34
2022-11-03T16:56:10.460Z,10.30
2022-11-03T16:59:11.868Z,10.09
2022-11-03T17:02:16.421Z,10.00
2022-11-03T17:05:19.815Z,9.87
2022-11-03T17:11:42.565Z,9.76
2022-11-03T17:14:43.930Z,9.75
2022-11-03T17:21:08.559Z,9.67
2022-11-03T17:24:11.288Z,9.63
2022-11-03T17:27:16.539Z,9.66
2022-11-03T17:30:21.676Z,9.67
2022-11-03T17:33:23.368Z,9.65
2022-11-03T17:36:24.878Z,9.60
2022-11-03T17:39:28.425Z,9.61
2022-11-03T17:42:30.104Z,9.60
2022-11-03T17:45:31.691Z,9.62
2022-11-03T17:48:33.294Z,9.62
2022-11-03T17:51:34.978Z,9.61
2022-11-03T17:54:36.397Z,9.61
2022-11-03T17:57:37.908Z,9.62
2022-11-03T18:00:39.611Z,9.63
2022-11-03T18:03:41.320Z,9.60
2022-11-03T18:06:42.785Z,9.61
2022-11-03T18:09:44.348Z,9.64
2022-11-03T18:13:05.591Z,9.63
2022-11-03T18:16:13.366Z,9.66
2022-11-03T18:19:15.426Z,9.64
2022-11-03T18:22:16.878Z,9.59
2022-11-03T18:25:19.116Z,9.58
2022-11-03T18:28:20.643Z,9.56
2022-11-03T18:31:23.024Z,9.56
2022-11-03T18:34:25.074Z,9.56
2022-11-03T18:37:26.494Z,9.57
2022-11-03T18:40:28.390Z,9.55
2022-11-03T18:43:29.948Z,9.52
2022-11-03T18:46:31.450Z,9.48
2022-11-03T18:49:33.916Z,9.48
2022-11-03T18:52:36.992Z,9.46
2022-11-03T18:55:38.519Z,9.42
2022-11-03T18:58:40.096Z,9.43
2022-11-03T19:01:41.648Z,9.38
2022-11-03T19:04:43.174Z,9.38
2022-11-03T19:07:45.373Z,9.40
2022-11-03T19:10:47.487Z,9.42
2022-11-03T19:13:48.820Z,9.39
2022-11-03T19:17:17.182Z,9.40
2022-11-03T19:20:14.501Z,9.39
2022-11-03T19:23:16.096Z,9.38
2022-11-03T19:26:24.877Z,9.39
2022-11-03T19:29:27.608Z,9.40
2022-11-03T19:32:29.944Z,9.39
2022-11-03T19:35:31.763Z,9.37
2022-11-03T19:38:34.399Z,9.34
2022-11-03T19:41:54.339Z,9.32
2022-11-03T19:44:56.144Z,9.28
2022-11-03T19:48:22.429Z,9.31
2022-11-03T19:51:20.329Z,9.31
2022-11-03T19:54:21.698Z,9.32
2022-11-03T19:57:23.239Z,9.32
2022-11-03T20:00:24.567Z,9.31
2022-11-03T20:03:25.952Z,9.31
2022-11-03T20:06:27.358Z,9.25
2022-11-03T20:12:34.989Z,9.20
2022-11-03T20:15:36.331Z,9.20
2022-11-03T20:18:38.257Z,9.18
2022-11-03T20:21:41.003Z,9.16
2022-11-03T20:24:43.166Z,9.20
2022-11-03T20:27:44.639Z,9.17
2022-11-03T20:30:46.191Z,9.17
2022-11-03T20:33:47.696Z,9.19
2022-11-03T20:36:49.172Z,9.22
2022-11-03T20:39:50.620Z,9.21
2022-11-03T20:42:53.998Z,9.21
2022-11-03T20:45:55.420Z,9.18
2022-11-03T20:48:57.387Z,9.16
2022-11-03T20:51:59.148Z,9.19
2022-11-03T20:55:00.596Z,9.21
2022-11-03T20:58:01.991Z,9.19
2022-11-03T21:01:03.885Z,9.21
2022-11-03T21:04:09.633Z,9.22
2022-11-03T21:07:13.902Z,9.21
2022-11-03T21:10:20.359Z,9.18
2022-11-03T21:13:22.216Z,9.07
2022-11-03T21:16:42.721Z,9.05
2022-11-03T21:19:59.475Z,9.03
2022-11-03T21:23:00.984Z,8.82
2022-11-03T21:26:02.523Z,8.82
2022-11-03T21:29:04.007Z,8.92
2022-11-03T21:32:05.625Z,8.97
2022-11-03T21:35:07.276Z,8.92
2022-11-03T21:38:09.169Z,9.00
2022-11-03T21:41:29.726Z,9.17
2022-11-03T21:44:31.292Z,9.22
2022-11-03T21:47:32.684Z,9.28
2022-11-03T21:50:34.166Z,9.32
2022-11-03T21:53:35.584Z,9.31
2022-11-03T21:56:37.083Z,9.28
2022-11-03T21:59:38.457Z,9.33
2022-11-03T22:02:39.802Z,9.47
2022-11-03T22:05:41.241Z,9.38
2022-11-03T22:08:43.589Z,9.42
2022-11-03T22:11:44.994Z,9.41
2022-11-03T22:15:05.162Z,9.32
2022-11-03T22:18:07.151Z,9.25
2022-11-03T22:21:27.602Z,9.19
2022-11-03T22:24:47.631Z,9.20
2022-11-03T22:27:48.978Z,9.14
2022-11-03T22:31:09.390Z,9.15
2022-11-03T22:34:29.772Z,9.08
2022-11-03T22:40:50.322Z,9.11
2022-11-03T22:44:11.947Z,9.01
2022-11-03T22:47:15.942Z,8.96
2022-11-03T22:50:20.047Z,9.09
2022-11-03T22:53:40.135Z,9.12
2022-11-03T22:56:41.455Z,9.19
2022-11-03T22:59:42.841Z,9.27
2022-11-03T23:02:44.696Z,9.25
2022-11-03T23:05:46.045Z,9.17
2022-11-03T23:08:47.738Z,9.18
2022-11-03T23:11:49.059Z,9.22
2022-11-03T23:15:09.059Z,9.33
2022-11-03T23:18:29.200Z,9.32
2022-11-03T23:21:30.673Z,9.32
2022-11-03T23:24:50.976Z,9.24
2022-11-03T23:27:52.566Z,9.12
2022-11-03T23:30:53.908Z,9.11
2022-11-03T23:33:55.333Z,9.18
2022-11-03T23:36:58.008Z,9.24
2022-11-03T23:39:59.354Z,9.22
2022-11-03T23:43:00.720Z,9.21
2022-11-03T23:46:20.684Z,9.15
2022-11-03T23:49:22.013Z,9.09
2022-11-03T23:52:23.326Z,9.13
2022-11-03T23:55:24.652Z,9.20
2022-11-03T23:58:25.974Z,9.23
